sensor_id;sensor_type;location;lat;lon;timestamp;pressure;altitude;pressure_sealevel;temperature;humidity
62697;BME280;48761;42.680;23.312;2022-07-29T00:00:18;95010.44;;;25.88;50.99
62697;BME280;48761;42.680;23.312;2022-07-29T00:02:44;95013.00;;;25.96;50.64
62697;BME280;48761;42.680;23.312;2022-07-29T00:05:10;95020.50;;;25.94;50.43
62697;BME280;48761;42.680;23.312;2022-07-29T00:07:36;95022.59;;;25.92;50.68
62697;BME280;48761;42.680;23.312;2022-07-29T00:10:02;95029.09;;;25.91;50.57
62697;BME280;48761;42.680;23.312;2022-07-29T00:12:28;95028.28;;;25.97;50.57
62697;BME280;48761;42.680;23.312;2022-07-29T00:14:54;95033.13;;;26.02;50.73
62697;BME280;48761;42.680;23.312;2022-07-29T00:17:21;95033.97;;;26.02;50.79
62697;BME280;48761;42.680;23.312;2022-07-29T00:19:47;95031.50;;;26.07;50.67
62697;BME280;48761;42.680;23.312;2022-07-29T00:22:13;95026.03;;;26.07;50.56
62697;BME280;48761;42.680;23.312;2022-07-29T00:24:39;95022.72;;;26.12;50.98
62697;BME280;48761;42.680;23.312;2022-07-29T00:27:04;95028.13;;;26.05;50.69
62697;BME280;48761;42.680;23.312;2022-07-29T00:29:30;95025.81;;;26.02;50.23
62697;BME280;48761;42.680;23.312;2022-07-29T00:31:56;95027.06;;;26.06;49.94
62697;BME280;48761;42.680;23.312;2022-07-29T00:34:22;95016.84;;;26.08;50.34
62697;BME280;48761;42.680;23.312;2022-07-29T00:36:48;95031.50;;;26.07;50.10
62697;BME280;48761;42.680;23.312;2022-07-29T00:39:14;95025.66;;;26.11;50.39
62697;BME280;48761;42.680;23.312;2022-07-29T00:41:40;95021.41;;;26.01;50.34
62697;BME280;48761;42.680;23.312;2022-07-29T00:44:05;95026.63;;;25.96;50.68
62697;BME280;48761;42.680;23.312;2022-07-29T00:46:31;95036.06;;;26.00;50.49
62697;BME280;48761;42.680;23.312;2022-07-29T00:48:57;95040.47;;;26.01;50.24
62697;BME280;48761;42.680;23.312;2022-07-29T00:51:25;95037.34;;;26.04;50.85
62697;BME280;48761;42.680;23.312;2022-07-29T00:53:52;95043.88;;;26.10;51.11
62697;BME280;48761;42.680;23.312;2022-07-29T00:56:18;95049.09;;;26.12;51.11
62697;BME280;48761;42.680;23.312;2022-07-29T00:58:46;95036.31;;;26.05;51.34
62697;BME280;48761;42.680;23.312;2022-07-29T01:01:13;95034.59;;;26.04;51.21
62697;BME280;48761;42.680;23.312;2022-07-29T01:03:39;95030.00;;;26.05;51.14
62697;BME280;48761;42.680;23.312;2022-07-29T01:06:05;95036.47;;;25.97;51.42
62697;BME280;48761;42.680;23.312;2022-07-29T01:08:32;95025.97;;;25.94;51.60
62697;BME280;48761;42.680;23.312;2022-07-29T01:10:59;95025.31;;;25.92;51.73
62697;BME280;48761;42.680;23.312;2022-07-29T01:13:27;95024.69;;;25.90;51.56
62697;BME280;48761;42.680;23.312;2022-07-29T01:16:10;95025.53;;;25.90;51.59
62697;BME280;48761;42.680;23.312;2022-07-29T01:18:42;95019.63;;;25.86;51.65
62697;BME280;48761;42.680;23.312;2022-07-29T01:29:29;95014.97;;;25.73;51.83
62697;BME280;48761;42.680;23.312;2022-07-29T01:37:57;95000.63;;;25.64;51.99
62697;BME280;48761;42.680;23.312;2022-07-29T01:40:35;94993.94;;;25.60;52.25
62697;BME280;48761;42.680;23.312;2022-07-29T01:43:14;94997.28;;;25.62;52.00
62697;BME280;48761;42.680;23.312;2022-07-29T01:45:46;95007.34;;;25.69;51.83
62697;BME280;48761;42.680;23.312;2022-07-29T01:48:19;94997.94;;;25.71;51.72
62697;BME280;48761;42.680;23.312;2022-07-29T01:50:53;95005.53;;;25.76;51.74
62697;BME280;48761;42.680;23.312;2022-07-29T01:53:35;95006.84;;;25.80;51.54
62697;BME280;48761;42.680;23.312;2022-07-29T01:56:02;95000.34;;;25.81;51.82
62697;BME280;48761;42.680;23.312;2022-07-29T01:58:31;95000.34;;;25.81;51.83
62697;BME280;48761;42.680;23.312;2022-07-29T02:00:59;94995.31;;;25.78;51.67
62697;BME280;48761;42.680;23.312;2022-07-29T02:03:27;94987.91;;;25.72;52.01
62697;BME280;48761;42.680;23.312;2022-07-29T02:05:55;94991.88;;;25.69;52.09
62697;BME280;48761;42.680;23.312;2022-07-29T02:08:23;94992.47;;;25.64;51.89
62697;BME280;48761;42.680;23.312;2022-07-29T02:10:50;94988.91;;;25.64;51.87
62697;BME280;48761;42.680;23.312;2022-07-29T02:13:17;94979.91;;;25.63;52.02
62697;BME280;48761;42.680;23.312;2022-07-29T02:15:48;94987.44;;;25.61;52.28
62697;BME280;48761;42.680;23.312;2022-07-29T02:18:17;94989.28;;;25.61;52.49
62697;BME280;48761;42.680;23.312;2022-07-29T02:20:48;94983.03;;;25.60;52.52
62697;BME280;48761;42.680;23.312;2022-07-29T02:23:18;94981.56;;;25.58;52.50
62697;BME280;48761;42.680;23.312;2022-07-29T02:25:50;94980.50;;;25.59;52.43
62697;BME280;48761;42.680;23.312;2022-07-29T02:28:19;94972.56;;;25.57;52.49
62697;BME280;48761;42.680;23.312;2022-07-29T02:30:46;94976.97;;;25.58;52.49
62697;BME280;48761;42.680;23.312;2022-07-29T02:33:14;94979.88;;;25.57;52.41
62697;BME280;48761;42.680;23.312;2022-07-29T02:35:43;94967.88;;;25.51;52.76
62697;BME280;48761;42.680;23.312;2022-07-29T02:38:14;94965.59;;;25.48;52.65
62697;BME280;48761;42.680;23.312;2022-07-29T02:40:41;94967.00;;;25.44;52.76
62697;BME280;48761;42.680;23.312;2022-07-29T02:43:10;94964.28;;;25.44;53.06
62697;BME280;48761;42.680;23.312;2022-07-29T02:45:36;94958.59;;;25.38;53.13
62697;BME280;48761;42.680;23.312;2022-07-29T02:48:07;94959.28;;;25.40;53.51
62697;BME280;48761;42.680;23.312;2022-07-29T02:50:38;94956.31;;;25.35;53.18
62697;BME280;48761;42.680;23.312;2022-07-29T02:53:16;94968.31;;;25.19;53.94
62697;BME280;48761;42.680;23.312;2022-07-29T02:55:46;94958.06;;;25.21;53.91
62697;BME280;48761;42.680;23.312;2022-07-29T02:58:27;94965.16;;;25.15;53.91
62697;BME280;48761;42.680;23.312;2022-07-29T03:00:56;94961.38;;;25.16;54.31
62697;BME280;48761;42.680;23.312;2022-07-29T03:03:26;94948.84;;;25.15;54.40
62697;BME280;48761;42.680;23.312;2022-07-29T03:06:01;94954.28;;;25.15;54.11
62697;BME280;48761;42.680;23.312;2022-07-29T03:08:28;94955.09;;;25.16;54.25
62697;BME280;48761;42.680;23.312;2022-07-29T03:10:55;94969.78;;;25.22;54.71
62697;BME280;48761;42.680;23.312;2022-07-29T03:13:22;94960.75;;;25.14;54.46
62697;BME280;48761;42.680;23.312;2022-07-29T03:15:49;94961.38;;;25.16;54.51
62697;BME280;48761;42.680;23.312;2022-07-29T03:18:15;94959.72;;;25.15;54.19
62697;BME280;48761;42.680;23.312;2022-07-29T03:20:42;94961.78;;;25.13;54.25
62697;BME280;48761;42.680;23.312;2022-07-29T03:23:08;94965.53;;;25.12;54.41
62697;BME280;48761;42.680;23.312;2022-07-29T03:25:34;94971.38;;;25.09;54.62
62697;BME280;48761;42.680;23.312;2022-07-29T03:28:01;94973.19;;;25.02;54.64
62697;BME280;48761;42.680;23.312;2022-07-29T03:30:26;94972.13;;;25.03;54.71
62697;BME280;48761;42.680;23.312;2022-07-29T03:32:56;94975.53;;;25.05;54.68
62697;BME280;48761;42.680;23.312;2022-07-29T03:35:22;94977.19;;;25.06;54.44
62697;BME280;48761;42.680;23.312;2022-07-29T03:37:58;94981.78;;;25.05;54.24
62697;BME280;48761;42.680;23.312;2022-07-29T03:40:32;94974.28;;;25.07;54.20
62697;BME280;48761;42.680;23.312;2022-07-29T03:43:00;94985.22;;;25.14;53.89
62697;BME280;48761;42.680;23.312;2022-07-29T03:45:28;94984.19;;;25.15;53.90
62697;BME280;48761;42.680;23.312;2022-07-29T03:48:01;94975.81;;;25.17;53.86
62697;BME280;48761;42.680;23.312;2022-07-29T03:50:30;94983.19;;;25.23;53.71
62697;BME280;48761;42.680;23.312;2022-07-29T03:52:56;94985.09;;;25.23;53.27
62697;BME280;48761;42.680;23.312;2022-07-29T03:55:24;94986.16;;;25.28;53.16
62697;BME280;48761;42.680;23.312;2022-07-29T03:57:51;94981.16;;;25.32;53.36
62697;BME280;48761;42.680;23.312;2022-07-29T04:00:17;94993.31;;;25.36;53.60
62697;BME280;48761;42.680;23.312;2022-07-29T04:02:44;94987.97;;;25.43;53.29
62697;BME280;48761;42.680;23.312;2022-07-29T04:05:14;94990.06;;;25.48;53.01
62697;BME280;48761;42.680;23.312;2022-07-29T04:07:44;94996.78;;;25.52;53.12
62697;BME280;48761;42.680;23.312;2022-07-29T04:10:10;94984.66;;;25.55;53.38
62697;BME280;48761;42.680;23.312;2022-07-29T04:12:36;94990.16;;;25.61;53.21
62697;BME280;48761;42.680;23.312;2022-07-29T04:15:03;94995.19;;;25.64;53.16
62697;BME280;48761;42.680;23.312;2022-07-29T04:17:29;94989.75;;;25.64;52.99
62697;BME280;48761;42.680;23.312;2022-07-29T04:19:55;94984.94;;;25.67;52.69
62697;BME280;48761;42.680;23.312;2022-07-29T04:22:21;94994.16;;;25.66;52.62
62697;BME280;48761;42.680;23.312;2022-07-29T04:24:47;94982.22;;;25.67;52.74
62697;BME280;48761;42.680;23.312;2022-07-29T04:27:13;94980.16;;;25.69;52.68
62697;BME280;48761;42.680;23.312;2022-07-29T04:29:39;94981.84;;;25.70;52.68
62697;BME280;48761;42.680;23.312;2022-07-29T04:32:05;94988.13;;;25.70;52.33
62697;BME280;48761;42.680;23.312;2022-07-29T04:34:31;94989.22;;;25.76;52.15
62697;BME280;48761;42.680;23.312;2022-07-29T04:36:57;94995.13;;;25.80;52.23
62697;BME280;48761;42.680;23.312;2022-07-29T04:39:23;94999.56;;;25.88;52.43
62697;BME280;48761;42.680;23.312;2022-07-29T04:41:50;95004.19;;;25.94;52.37
62697;BME280;48761;42.680;23.312;2022-07-29T04:44:16;94998.78;;;26.01;51.95
62697;BME280;48761;42.680;23.312;2022-07-29T04:46:42;95000.50;;;26.08;51.03
62697;BME280;48761;42.680;23.312;2022-07-29T04:49:07;94993.38;;;26.14;50.95
62697;BME280;48761;42.680;23.312;2022-07-29T04:51:34;95003.47;;;26.14;50.84
62697;BME280;48761;42.680;23.312;2022-07-29T04:54:00;94996.56;;;26.18;50.82
62697;BME280;48761;42.680;23.312;2022-07-29T04:56:27;94999.53;;;26.30;46.34
62697;BME280;48761;42.680;23.312;2022-07-29T04:58:52;95006.94;;;26.43;38.43
62697;BME280;48761;42.680;23.312;2022-07-29T05:01:18;95007.81;;;26.57;36.39
62697;BME280;48761;42.680;23.312;2022-07-29T05:03:44;95004.28;;;26.70;38.32
62697;BME280;48761;42.680;23.312;2022-07-29T05:06:10;95003.28;;;26.85;38.50
62697;BME280;48761;42.680;23.312;2022-07-29T05:08:37;95002.91;;;27.02;38.18
62697;BME280;48761;42.680;23.312;2022-07-29T05:11:03;95005.22;;;27.18;41.31
62697;BME280;48761;42.680;23.312;2022-07-29T05:13:29;95007.97;;;27.32;41.62
62697;BME280;48761;42.680;23.312;2022-07-29T05:15:56;95006.28;;;27.45;41.31
62697;BME280;48761;42.680;23.312;2022-07-29T05:18:21;95016.38;;;27.58;41.05
62697;BME280;48761;42.680;23.312;2022-07-29T05:20:47;95010.47;;;27.68;40.92
62697;BME280;48761;42.680;23.312;2022-07-29T05:23:13;95017.00;;;27.80;40.66
62697;BME280;48761;42.680;23.312;2022-07-29T05:25:39;95018.00;;;27.93;40.64
62697;BME280;48761;42.680;23.312;2022-07-29T05:28:05;95009.38;;;28.03;40.95
62697;BME280;48761;42.680;23.312;2022-07-29T05:30:31;95012.50;;;28.13;40.94
62697;BME280;48761;42.680;23.312;2022-07-29T05:32:57;95006.56;;;28.23;44.01
62697;BME280;48761;42.680;23.312;2022-07-29T05:35:23;95008.28;;;28.17;45.46
62697;BME280;48761;42.680;23.312;2022-07-29T05:37:49;95009.13;;;28.18;46.15
62697;BME280;48761;42.680;23.312;2022-07-29T05:40:15;95008.50;;;28.16;45.70
62697;BME280;48761;42.680;23.312;2022-07-29T05:42:40;95016.69;;;28.16;46.00
62697;BME280;48761;42.680;23.312;2022-07-29T05:45:07;95015.41;;;28.12;46.15
62697;BME280;48761;42.680;23.312;2022-07-29T05:47:32;95011.66;;;28.13;45.83
62697;BME280;48761;42.680;23.312;2022-07-29T05:49:58;95023.41;;;28.13;45.71
62697;BME280;48761;42.680;23.312;2022-07-29T05:52:24;95021.72;;;28.12;45.39
62697;BME280;48761;42.680;23.312;2022-07-29T05:54:50;95017.13;;;28.13;45.72
62697;BME280;48761;42.680;23.312;2022-07-29T05:57:21;95020.03;;;28.18;45.90
62697;BME280;48761;42.680;23.312;2022-07-29T05:59:48;95017.50;;;28.23;47.55
62697;BME280;48761;42.680;23.312;2022-07-29T06:02:14;95018.28;;;28.37;45.63
62697;BME280;48761;42.680;23.312;2022-07-29T06:04:41;95022.88;;;28.50;44.89
62697;BME280;48761;42.680;23.312;2022-07-29T06:07:07;95017.38;;;28.64;44.44
62697;BME280;48761;42.680;23.312;2022-07-29T06:09:33;95026.56;;;28.76;44.10
62697;BME280;48761;42.680;23.312;2022-07-29T06:12:00;95018.91;;;28.85;43.96
62697;BME280;48761;42.680;23.312;2022-07-29T06:14:26;95024.75;;;28.96;43.92
62697;BME280;48761;42.680;23.312;2022-07-29T06:16:52;95028.03;;;29.05;43.72
62697;BME280;48761;42.680;23.312;2022-07-29T06:19:18;95025.31;;;29.12;43.54
62697;BME280;48761;42.680;23.312;2022-07-29T06:21:45;95030.72;;;29.18;43.45
62697;BME280;48761;42.680;23.312;2022-07-29T06:24:12;95021.66;;;29.25;43.47
62697;BME280;48761;42.680;23.312;2022-07-29T06:26:39;95030.84;;;29.30;43.18
62697;BME280;48761;42.680;23.312;2022-07-29T06:29:08;95025.34;;;29.37;43.21
62697;BME280;48761;42.680;23.312;2022-07-29T06:31:34;95024.44;;;29.43;43.01
62697;BME280;48761;42.680;23.312;2022-07-29T06:34:00;95024.81;;;29.47;42.91
62697;BME280;48761;42.680;23.312;2022-07-29T06:36:26;95024.75;;;29.54;43.02
62697;BME280;48761;42.680;23.312;2022-07-29T06:38:52;95021.59;;;29.57;42.96
62697;BME280;48761;42.680;23.312;2022-07-29T06:41:18;95025.53;;;29.61;42.99
62697;BME280;48761;42.680;23.312;2022-07-29T06:43:44;95013.69;;;29.68;43.00
62697;BME280;48761;42.680;23.312;2022-07-29T06:46:12;95017.03;;;29.70;43.12
62697;BME280;48761;42.680;23.312;2022-07-29T06:48:40;95012.81;;;29.74;42.90
62697;BME280;48761;42.680;23.312;2022-07-29T06:51:06;95014.66;;;29.80;42.97
62697;BME280;48761;42.680;23.312;2022-07-29T06:53:33;95024.09;;;29.84;42.69
62697;BME280;48761;42.680;23.312;2022-07-29T06:56:00;95012.25;;;29.91;42.64
62697;BME280;48761;42.680;23.312;2022-07-29T06:58:27;95018.09;;;29.94;42.57
62697;BME280;48761;42.680;23.312;2022-07-29T07:00:55;95016.56;;;29.98;42.52
62697;BME280;48761;42.680;23.312;2022-07-29T07:03:21;95011.25;;;30.04;43.38
62697;BME280;48761;42.680;23.312;2022-07-29T07:05:47;95012.09;;;30.04;42.25
62697;BME280;48761;42.680;23.312;2022-07-29T07:08:13;95009.50;;;30.09;43.29
62697;BME280;48761;42.680;23.312;2022-07-29T07:10:39;95007.38;;;30.12;43.67
62697;BME280;48761;42.680;23.312;2022-07-29T07:13:05;95007.53;;;30.17;42.87
62697;BME280;48761;42.680;23.312;2022-07-29T07:15:31;95007.31;;;30.18;43.03
62697;BME280;48761;42.680;23.312;2022-07-29T07:17:57;95014.00;;;30.23;42.89
62697;BME280;48761;42.680;23.312;2022-07-29T07:20:24;95007.69;;;30.22;43.23
62697;BME280;48761;42.680;23.312;2022-07-29T07:22:50;95009.38;;;30.23;42.92
62697;BME280;48761;42.680;23.312;2022-07-29T07:25:16;95001.75;;;30.25;42.89
62697;BME280;48761;42.680;23.312;2022-07-29T07:27:46;95008.88;;;30.26;43.19
62697;BME280;48761;42.680;23.312;2022-07-29T07:30:12;95007.59;;;30.29;42.84
62697;BME280;48761;42.680;23.312;2022-07-29T07:32:38;95001.91;;;30.30;43.25
62697;BME280;48761;42.680;23.312;2022-07-29T07:35:06;95006.13;;;30.33;42.84
62697;BME280;48761;42.680;23.312;2022-07-29T07:37:32;95004.22;;;30.34;43.25
62697;BME280;48761;42.680;23.312;2022-07-29T07:39:58;95003.97;;;30.35;43.08
62697;BME280;48761;42.680;23.312;2022-07-29T07:42:24;95005.19;;;30.39;42.99
62697;BME280;48761;42.680;23.312;2022-07-29T07:44:50;95003.88;;;30.42;43.58
62697;BME280;48761;42.680;23.312;2022-07-29T07:47:17;95000.44;;;30.47;42.96
62697;BME280;48761;42.680;23.312;2022-07-29T07:49:43;94995.59;;;30.49;43.27
62697;BME280;48761;42.680;23.312;2022-07-29T07:52:08;94998.09;;;30.50;43.69
62697;BME280;48761;42.680;23.312;2022-07-29T07:54:34;94993.22;;;30.52;42.96
62697;BME280;48761;42.680;23.312;2022-07-29T07:57:00;94992.75;;;30.56;43.04
62697;BME280;48761;42.680;23.312;2022-07-29T07:59:26;94996.94;;;30.58;43.17
62697;BME280;48761;42.680;23.312;2022-07-29T08:01:52;94997.78;;;30.59;43.46
62697;BME280;48761;42.680;23.312;2022-07-29T08:04:18;95000.53;;;30.59;43.32
62697;BME280;48761;42.680;23.312;2022-07-29T08:06:44;94988.47;;;30.60;42.97
62697;BME280;48761;42.680;23.312;2022-07-29T08:09:10;94994.56;;;30.62;43.28
62697;BME280;48761;42.680;23.312;2022-07-29T08:11:35;94994.56;;;30.62;43.09
62697;BME280;48761;42.680;23.312;2022-07-29T08:14:01;94985.50;;;30.61;43.14
62697;BME280;48761;42.680;23.312;2022-07-29T08:16:27;94990.75;;;30.63;43.18
62697;BME280;48761;42.680;23.312;2022-07-29T08:18:53;94985.66;;;30.67;42.91
62697;BME280;48761;42.680;23.312;2022-07-29T08:21:19;94994.47;;;30.69;43.22
62697;BME280;48761;42.680;23.312;2022-07-29T08:23:45;94990.91;;;30.68;43.29
62697;BME280;48761;42.680;23.312;2022-07-29T08:26:12;94991.50;;;30.70;43.24
62697;BME280;48761;42.680;23.312;2022-07-29T08:28:40;94994.84;;;30.72;43.09
62697;BME280;48761;42.680;23.312;2022-07-29T08:31:06;94983.88;;;30.72;43.24
62697;BME280;48761;42.680;23.312;2022-07-29T08:33:32;94992.69;;;30.74;43.09
62697;BME280;48761;42.680;23.312;2022-07-29T08:35:59;94993.53;;;30.75;43.01
62697;BME280;48761;42.680;23.312;2022-07-29T08:38:25;94994.38;;;30.75;43.33
62697;BME280;48761;42.680;23.312;2022-07-29T08:40:50;94983.41;;;30.75;42.96
62697;BME280;48761;42.680;23.312;2022-07-29T08:43:16;94996.06;;;30.76;43.27
62697;BME280;48761;42.680;23.312;2022-07-29T08:45:44;94985.91;;;30.77;42.83
62697;BME280;48761;42.680;23.312;2022-07-29T08:48:15;94987.97;;;30.82;42.82
62697;BME280;48761;42.680;23.312;2022-07-29T08:50:42;94992.13;;;30.84;42.13
62697;BME280;48761;42.680;23.312;2022-07-29T08:53:14;94983.22;;;30.89;41.89
62697;BME280;48761;42.680;23.312;2022-07-29T08:55:42;94982.75;;;30.92;42.22
62697;BME280;48761;42.680;23.312;2022-07-29T08:58:08;94978.97;;;30.93;41.76
62697;BME280;48761;42.680;23.312;2022-07-29T09:00:36;94975.16;;;30.94;42.39
62697;BME280;48761;42.680;23.312;2022-07-29T09:03:03;94974.06;;;30.95;42.02
62697;BME280;48761;42.680;23.312;2022-07-29T09:05:31;94973.03;;;30.96;42.33
62697;BME280;48761;42.680;23.312;2022-07-29T09:07:58;94970.50;;;30.95;42.20
62697;BME280;48761;42.680;23.312;2022-07-29T09:10:25;94972.41;;;30.94;41.48
62697;BME280;48761;42.680;23.312;2022-07-29T09:12:51;94965.00;;;30.95;42.19
62697;BME280;48761;42.680;23.312;2022-07-29T09:15:17;94965.84;;;30.95;41.94
62697;BME280;48761;42.680;23.312;2022-07-29T09:17:45;94969.69;;;30.94;41.05
62697;BME280;48761;42.680;23.312;2022-07-29T09:20:14;94969.44;;;30.96;39.83
62697;BME280;48761;42.680;23.312;2022-07-29T09:22:40;94965.38;;;30.98;41.31
62697;BME280;48761;42.680;23.312;2022-07-29T09:25:06;94956.44;;;31.03;38.14
62697;BME280;48761;42.680;23.312;2022-07-29T09:27:32;94971.13;;;31.09;37.98
62697;BME280;48761;42.680;23.312;2022-07-29T09:30:00;94967.31;;;31.10;36.73
62697;BME280;48761;42.680;23.312;2022-07-29T09:32:27;94965.28;;;31.17;38.27
62697;BME280;48761;42.680;23.312;2022-07-29T09:35:18;94962.06;;;31.20;36.84
62697;BME280;48761;42.680;23.312;2022-07-29T09:37:45;94961.59;;;31.24;36.63
62697;BME280;48761;42.680;23.312;2022-07-29T09:40:19;94962.34;;;31.31;36.63
62697;BME280;48761;42.680;23.312;2022-07-29T09:42:45;94953.97;;;31.26;35.24
62697;BME280;48761;42.680;23.312;2022-07-29T09:45:12;94962.22;;;31.26;36.05
62697;BME280;48761;42.680;23.312;2022-07-29T09:47:44;94954.56;;;31.28;36.74
62697;BME280;48761;42.680;23.312;2022-07-29T09:50:10;94947.88;;;31.24;35.52
62697;BME280;48761;42.680;23.312;2022-07-29T09:52:50;94961.16;;;31.27;36.19
62697;BME280;48761;42.680;23.312;2022-07-29T09:55:17;94961.16;;;31.27;36.89
62697;BME280;48761;42.680;23.312;2022-07-29T09:57:44;94941.34;;;31.25;36.35
62697;BME280;48761;42.680;23.312;2022-07-29T10:00:16;94945.75;;;31.26;38.23
62697;BME280;48761;42.680;23.312;2022-07-29T10:02:45;94940.13;;;31.20;38.01
62697;BME280;48761;42.680;23.312;2022-07-29T10:05:25;94940.59;;;31.17;37.44
62697;BME280;48761;42.680;23.312;2022-07-29T10:07:57;94933.91;;;31.13;37.48
62697;BME280;48761;42.680;23.312;2022-07-29T10:10:26;94937.72;;;31.12;37.92
62697;BME280;48761;42.680;23.312;2022-07-29T10:13:00;94924.00;;;31.12;38.07
62697;BME280;48761;42.680;23.312;2022-07-29T10:15:30;94921.50;;;31.10;37.50
62697;BME280;48761;42.680;23.312;2022-07-29T10:17:56;94915.16;;;31.10;37.94
62697;BME280;48761;42.680;23.312;2022-07-29T10:20:23;94916.25;;;31.09;38.01
62697;BME280;48761;42.680;23.312;2022-07-29T10:22:50;94923.41;;;31.10;37.75
62697;BME280;48761;42.680;23.312;2022-07-29T10:25:17;94919.00;;;31.09;38.03
62697;BME280;48761;42.680;23.312;2022-07-29T10:27:45;94915.66;;;31.07;37.74
62697;BME280;48761;42.680;23.312;2022-07-29T10:30:14;94908.97;;;31.03;37.91
62697;BME280;48761;42.680;23.312;2022-07-29T10:33:21;94904.56;;;31.02;38.47
62697;BME280;48761;42.680;23.312;2022-07-29T10:36:23;94903.34;;;30.97;38.00
62697;BME280;48761;42.680;23.312;2022-07-29T10:39:08;94899.41;;;30.93;38.04
62697;BME280;48761;42.680;23.312;2022-07-29T10:42:02;94895.91;;;30.86;38.53
62697;BME280;48761;42.680;23.312;2022-07-29T10:44:32;94892.56;;;30.84;38.47
62697;BME280;48761;42.680;23.312;2022-07-29T10:46:58;94895.19;;;30.79;38.98
62697;BME280;48761;42.680;23.312;2022-07-29T10:49:26;94887.19;;;30.77;39.09
62697;BME280;48761;42.680;23.312;2022-07-29T10:51:57;94883.00;;;30.74;39.13
62697;BME280;48761;42.680;23.312;2022-07-29T10:54:43;94882.53;;;30.77;39.28
62697;BME280;48761;42.680;23.312;2022-07-29T10:57:29;94876.84;;;30.79;39.16
62697;BME280;48761;42.680;23.312;2022-07-29T11:07:33;94864.63;;;30.63;39.57
62697;BME280;48761;42.680;23.312;2022-07-29T11:15:07;94865.56;;;30.57;39.05
62697;BME280;48761;42.680;23.312;2022-07-29T11:29:03;94858.59;;;30.42;39.66
62697;BME280;48761;42.680;23.312;2022-07-29T11:31:32;94853.97;;;30.42;40.20
62697;BME280;48761;42.680;23.312;2022-07-29T11:34:21;94851.25;;;30.54;39.55
62697;BME280;48761;42.680;23.312;2022-07-29T11:47:39;94844.72;;;30.80;38.99
62697;BME280;48761;42.680;23.312;2022-07-29T11:50:09;94837.09;;;30.70;39.32
62697;BME280;48761;42.680;23.312;2022-07-29T11:52:40;94836.75;;;30.66;39.47
62697;BME280;48761;42.680;23.312;2022-07-29T11:55:06;94842.09;;;30.61;39.66
62697;BME280;48761;42.680;23.312;2022-07-29T11:57:33;94836.03;;;30.59;39.25
62697;BME280;48761;42.680;23.312;2022-07-29T12:00:00;94837.66;;;30.60;39.25
62697;BME280;48761;42.680;23.312;2022-07-29T12:02:38;94839.34;;;30.61;39.06
62697;BME280;48761;42.680;23.312;2022-07-29T12:05:04;94837.22;;;30.63;38.54
62697;BME280;48761;42.680;23.312;2022-07-29T12:07:32;94836.97;;;30.64;38.60
62697;BME280;48761;42.680;23.312;2022-07-29T12:09:59;94832.56;;;30.63;38.75
62697;BME280;48761;42.680;23.312;2022-07-29T12:12:25;94829.56;;;30.65;38.55
62697;BME280;48761;42.680;23.312;2022-07-29T12:14:51;94828.50;;;30.66;38.34
62697;BME280;48761;42.680;23.312;2022-07-29T12:19:58;94823.88;;;30.67;38.48
62697;BME280;48761;42.680;23.312;2022-07-29T12:24:55;94834.59;;;30.68;38.11
62697;BME280;48761;42.680;23.312;2022-07-29T12:27:21;94830.75;;;30.69;38.22
62697;BME280;48761;42.680;23.312;2022-07-29T12:29:59;94831.59;;;30.70;38.05
62697;BME280;48761;42.680;23.312;2022-07-29T12:32:40;94822.31;;;30.71;37.61
62697;BME280;48761;42.680;23.312;2022-07-29T12:35:12;94820.41;;;30.71;37.77
62697;BME280;48761;42.680;23.312;2022-07-29T12:37:40;94813.00;;;30.72;37.72
62697;BME280;48761;42.680;23.312;2022-07-29T12:40:08;94817.19;;;30.74;37.29
62697;BME280;48761;42.680;23.312;2022-07-29T12:42:35;94832.69;;;30.81;37.31
62697;BME280;48761;42.680;23.312;2022-07-29T12:45:02;94807.31;;;30.85;37.48
62697;BME280;48761;42.680;23.312;2022-07-29T12:47:28;94809.22;;;30.97;37.24
62697;BME280;48761;42.680;23.312;2022-07-29T12:50:13;94807.44;;;31.03;37.97
62697;BME280;48761;42.680;23.312;2022-07-29T12:52:40;94811.28;;;31.02;38.15
62697;BME280;48761;42.680;23.312;2022-07-29T12:55:06;94802.44;;;30.99;38.34
62697;BME280;48761;42.680;23.312;2022-07-29T12:57:47;94794.44;;;30.98;38.08
62697;BME280;48761;42.680;23.312;2022-07-29T13:00:14;94801.25;;;30.95;38.39
62697;BME280;48761;42.680;23.312;2022-07-29T13:02:41;94800.78;;;30.98;38.09
62697;BME280;48761;42.680;23.312;2022-07-29T13:05:09;94791.47;;;30.99;37.89
62697;BME280;48761;42.680;23.312;2022-07-29T13:07:36;94781.44;;;31.05;36.86
62697;BME280;48761;42.680;23.312;2022-07-29T13:10:16;94787.63;;;31.13;37.66
62697;BME280;48761;42.680;23.312;2022-07-29T13:13:08;94786.22;;;31.10;37.99
62697;BME280;48761;42.680;23.312;2022-07-29T13:15:36;94780.38;;;31.06;38.34
62697;BME280;48761;42.680;23.312;2022-07-29T13:18:03;94781.22;;;31.07;38.28
62697;BME280;48761;42.680;23.312;2022-07-29T13:20:29;94776.53;;;31.07;37.99
62697;BME280;48761;42.680;23.312;2022-07-29T13:22:57;94776.53;;;31.07;37.89
62697;BME280;48761;42.680;23.312;2022-07-29T13:25:28;94782.41;;;31.11;38.01
62697;BME280;48761;42.680;23.312;2022-07-29T13:27:55;94775.94;;;31.17;38.24
62697;BME280;48761;42.680;23.312;2022-07-29T13:30:21;94777.63;;;31.18;38.14
62697;BME280;48761;42.680;23.312;2022-07-29T13:32:48;94766.63;;;31.18;38.19
62697;BME280;48761;42.680;23.312;2022-07-29T13:35:14;94759.00;;;31.20;38.25
62697;BME280;48761;42.680;23.312;2022-07-29T13:37:40;94758.41;;;31.18;38.39
62697;BME280;48761;42.680;23.312;2022-07-29T13:40:08;94755.66;;;31.18;38.55
62697;BME280;48761;42.680;23.312;2022-07-29T13:42:34;94753.97;;;31.17;38.57
62697;BME280;48761;42.680;23.312;2022-07-29T13:45:01;94758.41;;;31.18;38.34
62697;BME280;48761;42.680;23.312;2022-07-29T13:47:27;94764.97;;;31.17;38.88
62697;BME280;48761;42.680;23.312;2022-07-29T13:49:53;94755.66;;;31.18;38.67